sensor_id;sensor_type;location;lat;lon;timestamp;pressure;altitude;pressure_sealevel;temperature;humidity
11395;BME280;5753;54.402;10.220;2023-04-03T00:01:45;103443.84;;;10.87;38.67
11395;BME280;5753;54.402;10.220;2023-04-03T00:04:11;103443.50;;;10.95;38.38
11395;BME280;5753;54.402;10.220;2023-04-03T00:06:37;103446.53;;;10.88;38.69
11395;BME280;5753;54.402;10.220;2023-04-03T00:09:04;103452.47;;;10.87;38.61
11395;BME280;5753;54.402;10.220;2023-04-03T00:11:30;103449.28;;;10.77;38.69
11395;BME280;5753;54.402;10.220;2023-04-03T00:13:56;103451.69;;;10.73;38.85
11395;BME280;5753;54.402;10.220;2023-04-03T00:16:22;103462.66;;;10.69;38.78
11395;BME280;5753;54.402;10.220;2023-04-03T00:18:48;103458.47;;;10.71;39.02
11395;BME280;5753;54.402;10.220;2023-04-03T00:21:14;103466.75;;;10.66;39.02
11395;BME280;5753;54.402;10.220;2023-04-03T00:23:41;103457.22;;;10.80;38.71
11395;BME280;5753;54.402;10.220;2023-04-03T00:26:07;103462.03;;;10.73;38.75
11395;BME280;5753;54.402;10.220;2023-04-03T00:28:34;103462.91;;;10.89;38.41
11395;BME280;5753;54.402;10.220;2023-04-03T00:31:00;103469.66;;;10.87;38.59
11395;BME280;5753;54.402;10.220;2023-04-03T00:33:26;103469.13;;;10.78;38.44
11395;BME280;5753;54.402;10.220;2023-04-03T00:35:52;103467.91;;;10.71;38.62
11395;BME280;5753;54.402;10.220;2023-04-03T00:38:19;103472.69;;;10.80;38.52
11395;BME280;5753;54.402;10.220;2023-04-03T00:40:47;103462.63;;;10.84;38.36
11395;BME280;5753;54.402;10.220;2023-04-03T00:43:20;103470.03;;;10.93;38.15
11395;BME280;5753;54.402;10.220;2023-04-03T00:45:51;103470.44;;;10.86;38.28
11395;BME280;5753;54.402;10.220;2023-04-03T00:50:52;103476.97;;;10.64;38.57
11395;BME280;5753;54.402;10.220;2023-04-03T00:53:22;103473.59;;;10.65;38.58
11395;BME280;5753;54.402;10.220;2023-04-03T00:55:51;103475.19;;;10.63;38.82
11395;BME280;5753;54.402;10.220;2023-04-03T00:58:21;103471.81;;;10.64;38.61
11395;BME280;5753;54.402;10.220;2023-04-03T01:00:54;103474.63;;;10.39;39.07
11395;BME280;5753;54.402;10.220;2023-04-03T01:03:23;103480.31;;;10.34;39.29
11395;BME280;5753;54.402;10.220;2023-04-03T01:05:49;103484.69;;;10.35;39.28
11395;BME280;5753;54.402;10.220;2023-04-03T01:08:16;103485.66;;;10.22;39.48
11395;BME280;5753;54.402;10.220;2023-04-03T01:10:42;103483.56;;;10.17;39.51
11395;BME280;5753;54.402;10.220;2023-04-03T01:13:27;103477.84;;;10.35;39.39
11395;BME280;5753;54.402;10.220;2023-04-03T01:15:54;103483.88;;;10.21;39.69
11395;BME280;5753;54.402;10.220;2023-04-03T01:18:22;103485.31;;;10.31;39.23
11395;BME280;5753;54.402;10.220;2023-04-03T01:26:03;103478.31;;;10.43;38.91
11395;BME280;5753;54.402;10.220;2023-04-03T01:28:32;103475.69;;;10.28;39.54
11395;BME280;5753;54.402;10.220;2023-04-03T01:33:55;103484.63;;;10.05;39.78
11395;BME280;5753;54.402;10.220;2023-04-03T01:36:27;103473.34;;;10.18;39.81
11395;BME280;5753;54.402;10.220;2023-04-03T01:38:55;103478.00;;;10.24;39.38
11395;BME280;5753;54.402;10.220;2023-04-03T01:41:22;103479.56;;;10.07;39.36
11395;BME280;5753;54.402;10.220;2023-04-03T01:43:49;103479.44;;;9.77;39.85
11395;BME280;5753;54.402;10.220;2023-04-03T01:46:16;103474.22;;;9.76;40.15
11395;BME280;5753;54.402;10.220;2023-04-03T01:48:42;103475.91;;;9.75;40.31
11395;BME280;5753;54.402;10.220;2023-04-03T01:51:09;103483.19;;;9.83;39.98
11395;BME280;5753;54.402;10.220;2023-04-03T01:53:35;103475.28;;;9.79;39.91
11395;BME280;5753;54.402;10.220;2023-04-03T01:56:02;103471.03;;;9.80;39.51
11395;BME280;5753;54.402;10.220;2023-04-03T01:58:28;103473.31;;;9.75;40.48
11395;BME280;5753;54.402;10.220;2023-04-03T02:00:54;103481.03;;;9.75;40.61
11395;BME280;5753;54.402;10.220;2023-04-03T02:03:21;103476.91;;;9.92;40.28
11395;BME280;5753;54.402;10.220;2023-04-03T02:05:47;103477.41;;;10.00;40.09
11395;BME280;5753;54.402;10.220;2023-04-03T02:08:13;103474.66;;;10.54;39.38
11395;BME280;5753;54.402;10.220;2023-04-03T02:10:40;103482.03;;;10.05;39.54
11395;BME280;5753;54.402;10.220;2023-04-03T02:13:06;103472.91;;;9.83;39.43
11395;BME280;5753;54.402;10.220;2023-04-03T02:15:32;103475.53;;;9.69;39.67
11395;BME280;5753;54.402;10.220;2023-04-03T02:17:58;103472.81;;;9.81;39.91
11395;BME280;5753;54.402;10.220;2023-04-03T02:20:24;103482.50;;;9.57;40.31
11395;BME280;5753;54.402;10.220;2023-04-03T02:22:51;103476.34;;;9.83;39.98
11395;BME280;5753;54.402;10.220;2023-04-03T02:25:17;103472.25;;;9.72;40.18
11395;BME280;5753;54.402;10.220;2023-04-03T02:27:44;103475.47;;;9.55;40.52
11395;BME280;5753;54.402;10.220;2023-04-03T02:30:10;103472.53;;;9.35;40.76
11395;BME280;5753;54.402;10.220;2023-04-03T02:32:37;103475.28;;;9.52;40.31
11395;BME280;5753;54.402;10.220;2023-04-03T02:35:03;103477.84;;;9.38;40.61
11395;BME280;5753;54.402;10.220;2023-04-03T02:37:30;103478.66;;;9.37;40.37
11395;BME280;5753;54.402;10.220;2023-04-03T02:39:56;103470.94;;;9.37;40.45
11395;BME280;5753;54.402;10.220;2023-04-03T02:42:22;103472.53;;;9.35;41.04
11395;BME280;5753;54.402;10.220;2023-04-03T02:44:48;103472.00;;;9.41;40.94
11395;BME280;5753;54.402;10.220;2023-04-03T02:47:14;103468.84;;;9.45;40.49
11395;BME280;5753;54.402;10.220;2023-04-03T02:49:40;103468.44;;;9.39;41.01
11395;BME280;5753;54.402;10.220;2023-04-03T02:52:07;103479.66;;;9.26;41.08
11395;BME280;5753;54.402;10.220;2023-04-03T02:54:33;103468.78;;;9.17;41.51
11395;BME280;5753;54.402;10.220;2023-04-03T02:56:59;103464.06;;;9.10;40.97
11395;BME280;5753;54.402;10.220;2023-04-03T02:59:25;103464.53;;;9.18;41.13
11395;BME280;5753;54.402;10.220;2023-04-03T03:01:51;103471.56;;;9.20;41.26
11395;BME280;5753;54.402;10.220;2023-04-03T03:04:18;103469.78;;;9.19;41.40
11395;BME280;5753;54.402;10.220;2023-04-03T03:06:44;103472.34;;;9.73;40.82
11395;BME280;5753;54.402;10.220;2023-04-03T03:09:10;103478.84;;;9.54;41.04
11395;BME280;5753;54.402;10.220;2023-04-03T03:11:36;103478.56;;;9.49;40.32
11395;BME280;5753;54.402;10.220;2023-04-03T03:14:03;103476.78;;;9.35;41.24
11395;BME280;5753;54.402;10.220;2023-04-03T03:16:29;103473.50;;;9.37;40.73
11395;BME280;5753;54.402;10.220;2023-04-03T03:18:55;103480.84;;;9.31;40.92
11395;BME280;5753;54.402;10.220;2023-04-03T03:21:21;103476.19;;;9.52;41.51
11395;BME280;5753;54.402;10.220;2023-04-03T03:23:48;103471.94;;;9.26;41.75
11395;BME280;5753;54.402;10.220;2023-04-03T03:26:14;103477.78;;;9.24;41.95
11395;BME280;5753;54.402;10.220;2023-04-03T03:28:40;103481.91;;;9.35;40.83
11395;BME280;5753;54.402;10.220;2023-04-03T03:31:08;103479.81;;;9.42;41.13
11395;BME280;5753;54.402;10.220;2023-04-03T03:33:34;103468.84;;;9.45;41.29
11395;BME280;5753;54.402;10.220;2023-04-03T03:36:00;103469.19;;;9.64;41.11
11395;BME280;5753;54.402;10.220;2023-04-03T03:38:26;103479.63;;;9.39;41.16
11395;BME280;5753;54.402;10.220;2023-04-03T03:40:53;103483.50;;;9.33;40.99
11395;BME280;5753;54.402;10.220;2023-04-03T03:43:19;103478.69;;;9.24;41.09
11395;BME280;5753;54.402;10.220;2023-04-03T03:45:50;103484.09;;;9.42;41.31
11395;BME280;5753;54.402;10.220;2023-04-03T03:48:18;103488.00;;;9.22;41.89
11395;BME280;5753;54.402;10.220;2023-04-03T03:50:44;103489.47;;;9.19;41.41
11395;BME280;5753;54.402;10.220;2023-04-03T03:53:10;103474.81;;;9.18;41.30
11395;BME280;5753;54.402;10.220;2023-04-03T03:55:37;103483.63;;;9.21;41.48
11395;BME280;5753;54.402;10.220;2023-04-03T03:58:03;103484.22;;;9.17;41.46
11395;BME280;5753;54.402;10.220;2023-04-03T04:00:29;103483.38;;;9.44;42.82
11395;BME280;5753;54.402;10.220;2023-04-03T04:02:56;103492.03;;;9.32;42.25
11395;BME280;5753;54.402;10.220;2023-04-03T04:05:22;103481.59;;;9.43;41.72
11395;BME280;5753;54.402;10.220;2023-04-03T04:07:49;103489.16;;;9.27;41.60
11395;BME280;5753;54.402;10.220;2023-04-03T04:10:15;103482.53;;;9.18;42.00
11395;BME280;5753;54.402;10.220;2023-04-03T04:12:41;103491.75;;;9.14;42.72
11395;BME280;5753;54.402;10.220;2023-04-03T04:15:08;103494.53;;;9.17;42.86
11395;BME280;5753;54.402;10.220;2023-04-03T04:17:34;103499.34;;;9.39;42.16
11395;BME280;5753;54.402;10.220;2023-04-03T04:20:02;103493.91;;;9.48;42.35
11395;BME280;5753;54.402;10.220;2023-04-03T04:22:28;103498.56;;;9.53;41.82
11395;BME280;5753;54.402;10.220;2023-04-03T04:24:54;103503.00;;;9.42;41.79
11395;BME280;5753;54.402;10.220;2023-04-03T04:27:20;103501.41;;;9.44;41.62
11395;BME280;5753;54.402;10.220;2023-04-03T04:29:47;103497.47;;;9.23;41.48
11395;BME280;5753;54.402;10.220;2023-04-03T04:32:13;103498.69;;;9.15;41.15
11395;BME280;5753;54.402;10.220;2023-04-03T04:34:39;103502.44;;;9.20;41.80
11395;BME280;5753;54.402;10.220;2023-04-03T04:37:05;103503.91;;;9.30;42.19
11395;BME280;5753;54.402;10.220;2023-04-03T04:39:31;103503.72;;;9.27;42.26
11395;BME280;5753;54.402;10.220;2023-04-03T04:41:58;103515.00;;;9.15;42.64
11395;BME280;5753;54.402;10.220;2023-04-03T04:44:24;103514.13;;;9.15;42.03
11395;BME280;5753;54.402;10.220;2023-04-03T04:46:50;103503.44;;;9.09;41.72
11395;BME280;5753;54.402;10.220;2023-04-03T04:49:16;103511.22;;;9.50;42.08
11395;BME280;5753;54.402;10.220;2023-04-03T04:51:42;103516.88;;;9.31;41.82
11395;BME280;5753;54.402;10.220;2023-04-03T04:54:08;103516.59;;;9.27;41.44
11395;BME280;5753;54.402;10.220;2023-04-03T04:56:34;103522.81;;;9.17;41.60
11395;BME280;5753;54.402;10.220;2023-04-03T04:59:01;103527.28;;;9.20;41.74
11395;BME280;5753;54.402;10.220;2023-04-03T05:01:27;103521.53;;;9.37;42.10
11395;BME280;5753;54.402;10.220;2023-04-03T05:03:54;103527.06;;;9.43;41.93
11395;BME280;5753;54.402;10.220;2023-04-03T05:06:20;103525.03;;;9.78;41.45
11395;BME280;5753;54.402;10.220;2023-04-03T05:08:47;103526.06;;;9.41;41.71
11395;BME280;5753;54.402;10.220;2023-04-03T05:11:13;103521.63;;;9.25;42.48
11395;BME280;5753;54.402;10.220;2023-04-03T05:13:39;103520.44;;;9.20;42.54
11395;BME280;5753;54.402;10.220;2023-04-03T05:16:05;103519.84;;;9.37;42.26
11395;BME280;5753;54.402;10.220;2023-04-03T05:18:32;103528.63;;;9.41;41.84
11395;BME280;5753;54.402;10.220;2023-04-03T05:20:58;103533.88;;;9.42;42.15
11395;BME280;5753;54.402;10.220;2023-04-03T05:23:25;103529.44;;;9.40;41.83
11395;BME280;5753;54.402;10.220;2023-04-03T05:25:51;103537.25;;;9.55;42.17
11395;BME280;5753;54.402;10.220;2023-04-03T05:28:17;103540.63;;;9.54;41.89
11395;BME280;5753;54.402;10.220;2023-04-03T05:30:43;103544.19;;;9.56;42.04
11395;BME280;5753;54.402;10.220;2023-04-03T05:33:09;103548.66;;;9.58;41.96
11395;BME280;5753;54.402;10.220;2023-04-03T05:35:37;103539.44;;;9.62;42.51
11395;BME280;5753;54.402;10.220;2023-04-03T05:38:06;103545.41;;;9.89;41.57
11395;BME280;5753;54.402;10.220;2023-04-03T05:40:32;103549.59;;;10.15;42.00
11395;BME280;5753;54.402;10.220;2023-04-03T05:42:58;103554.94;;;10.18;42.28
11395;BME280;5753;54.402;10.220;2023-04-03T05:45:25;103554.09;;;10.32;42.38
11395;BME280;5753;54.402;10.220;2023-04-03T05:47:51;103556.25;;;10.39;42.68
11395;BME280;5753;54.402;10.220;2023-04-03T05:50:17;103558.78;;;10.52;42.71
11395;BME280;5753;54.402;10.220;2023-04-03T05:52:46;103560.50;;;10.66;42.59
11395;BME280;5753;54.402;10.220;2023-04-03T05:55:14;103567.50;;;10.84;42.41
11395;BME280;5753;54.402;10.220;2023-04-03T05:57:40;103567.91;;;10.90;42.28
11395;BME280;5753;54.402;10.220;2023-04-03T06:00:10;103562.03;;;10.92;41.91
11395;BME280;5753;54.402;10.220;2023-04-03T06:02:38;103569.84;;;11.09;41.75
11395;BME280;5753;54.402;10.220;2023-04-03T06:05:05;103568.78;;;11.05;42.12
11395;BME280;5753;54.402;10.220;2023-04-03T06:07:31;103570.19;;;11.15;41.80
11395;BME280;5753;54.402;10.220;2023-04-03T06:09:57;103572.88;;;11.01;42.11
11395;BME280;5753;54.402;10.220;2023-04-03T06:12:24;103569.47;;;11.17;42.32
11395;BME280;5753;54.402;10.220;2023-04-03T06:14:50;103566.78;;;11.45;41.94
11395;BME280;5753;54.402;10.220;2023-04-03T06:17:17;103581.25;;;11.58;41.78
11395;BME280;5753;54.402;10.220;2023-04-03T06:19:44;103572.22;;;11.66;41.93
11395;BME280;5753;54.402;10.220;2023-04-03T06:22:10;103575.59;;;11.80;41.95
11395;BME280;5753;54.402;10.220;2023-04-03T06:24:38;103569.00;;;11.85;41.84
11395;BME280;5753;54.402;10.220;2023-04-03T06:27:04;103579.00;;;11.64;42.27
11395;BME280;5753;54.402;10.220;2023-04-03T06:29:30;103579.94;;;12.12;42.08
11395;BME280;5753;54.402;10.220;2023-04-03T06:31:57;103579.63;;;12.38;41.68
11395;BME280;5753;54.402;10.220;2023-04-03T06:34:23;103571.50;;;12.81;40.73
11395;BME280;5753;54.402;10.220;2023-04-03T06:36:49;103567.94;;;12.79;41.24
11395;BME280;5753;54.402;10.220;2023-04-03T06:39:18;103588.28;;;12.89;42.30
11395;BME280;5753;54.402;10.220;2023-04-03T06:41:48;103583.41;;;12.95;41.25
11395;BME280;5753;54.402;10.220;2023-04-03T06:44:15;103587.25;;;13.73;40.52
11395;BME280;5753;54.402;10.220;2023-04-03T06:46:42;103583.59;;;13.69;40.68
11395;BME280;5753;54.402;10.220;2023-04-03T06:49:09;103581.75;;;13.84;41.30
11395;BME280;5753;54.402;10.220;2023-04-03T06:51:36;103586.94;;;13.84;40.82
11395;BME280;5753;54.402;10.220;2023-04-03T06:54:03;103587.66;;;14.38;40.24
11395;BME280;5753;54.402;10.220;2023-04-03T06:56:30;103586.13;;;14.05;40.28
11395;BME280;5753;54.402;10.220;2023-04-03T06:58:56;103586.56;;;14.53;39.32
11395;BME280;5753;54.402;10.220;2023-04-03T07:01:25;103582.84;;;14.09;40.14
11395;BME280;5753;54.402;10.220;2023-04-03T07:03:53;103590.53;;;14.25;39.80
11395;BME280;5753;54.402;10.220;2023-04-03T07:06:19;103591.72;;;14.91;39.71
11395;BME280;5753;54.402;10.220;2023-04-03T07:08:46;103590.75;;;14.68;39.45
11395;BME280;5753;54.402;10.220;2023-04-03T07:11:14;103586.72;;;15.17;38.76
11395;BME280;5753;54.402;10.220;2023-04-03T07:13:41;103592.28;;;14.65;40.34
11395;BME280;5753;54.402;10.220;2023-04-03T07:16:08;103593.88;;;15.01;39.37
11395;BME280;5753;54.402;10.220;2023-04-03T07:18:34;103586.16;;;15.24;39.38
11395;BME280;5753;54.402;10.220;2023-04-03T07:21:01;103592.25;;;15.47;37.78
11395;BME280;5753;54.402;10.220;2023-04-03T07:23:27;103586.41;;;15.30;38.30
11395;BME280;5753;54.402;10.220;2023-04-03T07:25:54;103587.75;;;15.42;36.42
11395;BME280;5753;54.402;10.220;2023-04-03T07:28:22;103590.94;;;16.01;35.46
11395;BME280;5753;54.402;10.220;2023-04-03T07:31:00;103596.63;;;16.13;35.38
11395;BME280;5753;54.402;10.220;2023-04-03T07:33:27;103594.63;;;15.61;35.02
11395;BME280;5753;54.402;10.220;2023-04-03T07:35:53;103586.25;;;15.68;35.27
11395;BME280;5753;54.402;10.220;2023-04-03T07:38:19;103600.28;;;13.74;37.80
11395;BME280;5753;54.402;10.220;2023-04-03T07:40:47;103595.06;;;15.09;36.05
11395;BME280;5753;54.402;10.220;2023-04-03T07:43:14;103595.00;;;15.29;35.37
11395;BME280;5753;54.402;10.220;2023-04-03T07:45:41;103588.72;;;13.85;36.56
11395;BME280;5753;54.402;10.220;2023-04-03T07:48:07;103592.78;;;14.96;36.14
11395;BME280;5753;54.402;10.220;2023-04-03T07:50:34;103598.38;;;15.26;35.31
11395;BME280;5753;54.402;10.220;2023-04-03T07:53:00;103592.59;;;15.99;34.95
11395;BME280;5753;54.402;10.220;2023-04-03T07:55:26;103594.19;;;15.95;34.42
11395;BME280;5753;54.402;10.220;2023-04-03T07:57:52;103595.00;;;16.17;33.89
11395;BME280;5753;54.402;10.220;2023-04-03T08:00:19;103595.63;;;15.02;36.49
11395;BME280;5753;54.402;10.220;2023-04-03T08:02:45;103594.63;;;15.61;34.25
11395;BME280;5753;54.402;10.220;2023-04-03T08:05:18;103600.81;;;15.44;34.20
11395;BME280;5753;54.402;10.220;2023-04-03T08:07:45;103598.22;;;15.02;34.78
11395;BME280;5753;54.402;10.220;2023-04-03T08:10:11;103601.44;;;16.26;33.30
11395;BME280;5753;54.402;10.220;2023-04-03T08:12:38;103599.28;;;16.38;32.99
11395;BME280;5753;54.402;10.220;2023-04-03T08:15:05;103596.38;;;15.41;33.87
11395;BME280;5753;54.402;10.220;2023-04-03T08:17:32;103593.09;;;15.46;33.18
11395;BME280;5753;54.402;10.220;2023-04-03T08:19:59;103586.66;;;16.25;32.24
11395;BME280;5753;54.402;10.220;2023-04-03T08:22:25;103592.16;;;14.62;33.09
11395;BME280;5753;54.402;10.220;2023-04-03T08:24:52;103578.56;;;16.18;32.21
11395;BME280;5753;54.402;10.220;2023-04-03T08:27:18;103582.34;;;14.55;33.23
11395;BME280;5753;54.402;10.220;2023-04-03T08:29:44;103577.88;;;16.96;30.39
11395;BME280;5753;54.402;10.220;2023-04-03T08:32:10;103581.63;;;16.08;30.92
11395;BME280;5753;54.402;10.220;2023-04-03T08:34:36;103584.44;;;16.12;31.46
11395;BME280;5753;54.402;10.220;2023-04-03T08:37:05;103581.38;;;15.34;30.94
11395;BME280;5753;54.402;10.220;2023-04-03T08:39:32;103574.63;;;16.77;30.22
11395;BME280;5753;54.402;10.220;2023-04-03T08:42:01;103582.47;;;16.54;30.37
11395;BME280;5753;54.402;10.220;2023-04-03T08:50:12;103584.66;;;17.17;30.33
11395;BME280;5753;54.402;10.220;2023-04-03T08:52:48;103583.75;;;17.43;30.21
11395;BME280;5753;54.402;10.220;2023-04-03T08:55:40;103580.59;;;16.50;30.25
11395;BME280;5753;54.402;10.220;2023-04-03T08:58:26;103581.13;;;17.43;28.98
11395;BME280;5753;54.402;10.220;2023-04-03T09:04:14;103579.97;;;17.07;29.09
11395;BME280;5753;54.402;10.220;2023-04-03T09:06:45;103583.81;;;17.72;28.26
11395;BME280;5753;54.402;10.220;2023-04-03T09:09:35;103594.78;;;17.61;28.63
11395;BME280;5753;54.402;10.220;2023-04-03T09:14:57;103585.84;;;17.26;28.09
11395;BME280;5753;54.402;10.220;2023-04-03T09:23:01;103592.53;;;18.62;27.31
11395;BME280;5753;54.402;10.220;2023-04-03T09:25:37;103591.81;;;17.78;28.27
11395;BME280;5753;54.402;10.220;2023-04-03T09:28:05;103596.81;;;17.99;28.59
11395;BME280;5753;54.402;10.220;2023-04-03T09:30:36;103600.88;;;17.08;29.72
11395;BME280;5753;54.402;10.220;2023-04-03T09:33:03;103605.88;;;17.83;29.51
11395;BME280;5753;54.402;10.220;2023-04-03T09:35:35;103594.28;;;17.46;28.10
11395;BME280;5753;54.402;10.220;2023-04-03T09:38:22;103587.38;;;19.34;26.24
11395;BME280;5753;54.402;10.220;2023-04-03T09:41:05;103598.16;;;18.46;27.06
11395;BME280;5753;54.402;10.220;2023-04-03T09:43:34;103595.22;;;18.04;27.02
11395;BME280;5753;54.402;10.220;2023-04-03T09:46:37;103600.84;;;17.60;27.46
11395;BME280;5753;54.402;10.220;2023-04-03T09:49:05;103593.34;;;18.30;27.08
11395;BME280;5753;54.402;10.220;2023-04-03T09:51:37;103590.41;;;19.15;25.42
11395;BME280;5753;54.402;10.220;2023-04-03T09:54:24;103578.41;;;17.96;27.69
11395;BME280;5753;54.402;10.220;2023-04-03T09:56:52;103582.63;;;18.83;26.73
11395;BME280;5753;54.402;10.220;2023-04-03T09:59:19;103584.38;;;18.84;27.13
11395;BME280;5753;54.402;10.220;2023-04-03T10:04:47;103583.41;;;16.80;29.66
11395;BME280;5753;54.402;10.220;2023-04-03T10:07:46;103578.81;;;16.98;29.97
11395;BME280;5753;54.402;10.220;2023-04-03T10:10:19;103582.97;;;17.73;28.71
11395;BME280;5753;54.402;10.220;2023-04-03T10:12:48;103568.25;;;17.75;28.33
11395;BME280;5753;54.402;10.220;2023-04-03T10:15:16;103571.63;;;17.17;28.76
11395;BME280;5753;54.402;10.220;2023-04-03T10:17:57;103570.94;;;17.22;29.65
11395;BME280;5753;54.402;10.220;2023-04-03T10:26:11;103565.31;;;16.59;28.09
11395;BME280;5753;54.402;10.220;2023-04-03T10:34:44;103559.47;;;18.01;26.92
11395;BME280;5753;54.402;10.220;2023-04-03T10:40:33;103558.28;;;19.57;24.32
11395;BME280;5753;54.402;10.220;2023-04-03T10:43:10;103557.75;;;19.35;22.57
11395;BME280;5753;54.402;10.220;2023-04-03T10:45:53;103553.78;;;17.86;25.14
11395;BME280;5753;54.402;10.220;2023-04-03T10:51:25;103547.84;;;18.53;25.51
11395;BME280;5753;54.402;10.220;2023-04-03T10:54:25;103549.22;;;19.42;24.84
11395;BME280;5753;54.402;10.220;2023-04-03T10:57:01;103539.81;;;17.55;26.84
11395;BME280;5753;54.402;10.220;2023-04-03T11:02:23;103556.75;;;16.14;29.40
11395;BME280;5753;54.402;10.220;2023-04-03T11:05:27;103550.88;;;17.20;28.36
11395;BME280;5753;54.402;10.220;2023-04-03T11:07:59;103547.41;;;18.05;27.43
11395;BME280;5753;54.402;10.220;2023-04-03T11:10:55;103542.75;;;17.11;27.48
11395;BME280;5753;54.402;10.220;2023-04-03T11:13:28;103539.34;;;17.67;27.18
11395;BME280;5753;54.402;10.220;2023-04-03T11:15:58;103540.59;;;17.24;27.32
11395;BME280;5753;54.402;10.220;2023-04-03T11:21:20;103544.81;;;17.21;27.92
11395;BME280;5753;54.402;10.220;2023-04-03T11:23:47;103534.25;;;18.65;24.58
11395;BME280;5753;54.402;10.220;2023-04-03T11:26:20;103535.94;;;18.31;25.48
11395;BME280;5753;54.402;10.220;2023-04-03T11:28:53;103537.56;;;17.11;26.67
11395;BME280;5753;54.402;10.220;2023-04-03T11:34:21;103531.66;;;18.35;25.88
11395;BME280;5753;54.402;10.220;2023-04-03T11:36:56;103527.88;;;17.63;27.40
11395;BME280;5753;54.402;10.220;2023-04-03T11:39:31;103526.59;;;18.72;26.21
11395;BME280;5753;54.402;10.220;2023-04-03T11:44:41;103527.56;;;17.24;27.57
11395;BME280;5753;54.402;10.220;2023-04-03T11:47:10;103526.38;;;17.15;26.79
11395;BME280;5753;54.402;10.220;2023-04-03T11:50:03;103523.50;;;17.62;27.88
11395;BME280;5753;54.402;10.220;2023-04-03T12:13:41;103512.13;;;20.02;26.05
11395;BME280;5753;54.402;10.220;2023-04-03T12:19:03;103514.28;;;18.67;28.02
11395;BME280;5753;54.402;10.220;2023-04-03T12:29:17;103504.13;;;19.15;26.69
11395;BME280;5753;54.402;10.220;2023-04-03T12:32:07;103504.06;;;19.51;24.61
11395;BME280;5753;54.402;10.220;2023-04-03T12:47:35;103506.56;;;21.35;23.05
11395;BME280;5753;54.402;10.220;2023-04-03T12:50:16;103498.47;;;21.88;22.27
11395;BME280;5753;54.402;10.220;2023-04-03T12:52:47;103500.97;;;25.18;19.82
11395;BME280;5753;54.402;10.220;2023-04-03T12:55:19;103497.41;;;24.12;18.91
11395;BME280;5753;54.402;10.220;2023-04-03T12:57:47;103494.41;;;22.14;19.21
11395;BME280;5753;54.402;10.220;2023-04-03T13:02:56;103506.28;;;24.57;18.10
11395;BME280;5753;54.402;10.220;2023-04-03T13:05:23;103497.47;;;24.21;17.88
11395;BME280;5753;54.402;10.220;2023-04-03T13:07:58;103498.34;;;24.95;17.80
11395;BME280;5753;54.402;10.220;2023-04-03T13:10:24;103504.44;;;24.07;19.48
11395;BME280;5753;54.402;10.220;2023-04-03T13:12:56;103491.91;;;27.05;17.43
11395;BME280;5753;54.402;10.220;2023-04-03T13:15:25;103492.91;;;26.87;17.33
11395;BME280;5753;54.402;10.220;2023-04-03T13:17:52;103492.97;;;28.22;16.95
11395;BME280;5753;54.402;10.220;2023-04-03T13:20:28;103497.34;;;25.49;17.78
11395;BME280;5753;54.402;10.220;2023-04-03T13:23:07;103488.97;;;27.28;16.63
11395;BME280;5753;54.402;10.220;2023-04-03T13:25:40;103491.81;;;27.82;16.60
11395;BME280;5753;54.402;10.220;2023-04-03T13:28:12;103493.22;;;27.41;16.95
11395;BME280;5753;54.402;10.220;2023-04-03T13:30:40;103495.03;;;28.61;15.88
11395;BME280;5753;54.402;10.220;2023-04-03T13:33:21;103489.22;;;27.07;16.43
11395;BME280;5753;54.402;10.220;2023-04-03T13:35:55;103485.09;;;29.63;15.59
11395;BME280;5753;54.402;10.220;2023-04-03T13:38:26;103483.03;;;27.09;17.26
11395;BME280;5753;54.402;10.220;2023-04-03T13:40:58;103479.75;;;27.63;17.03
11395;BME280;5753;54.402;10.220;2023-04-03T13:43:34;103483.97;;;25.90;18.37
11395;BME280;5753;54.402;10.220;2023-04-03T13:48:57;103469.38;;;24.64;19.51
11395;BME280;5753;54.402;10.220;2023-04-03T13:51:28;103464.06;;;24.23;19.42
11395;BME280;5753;54.402;10.220;2023-04-03T13:54:01;103467.50;;;25.26;18.62
11395;BME280;5753;54.402;10.220;2023-04-03T13:56:40;103457.69;;;25.60;18.40
11395;BME280;5753;54.402;10.220;2023-04-03T14:01:49;103449.09;;;25.09;18.14
11395;BME280;5753;54.402;10.220;2023-04-03T14:04:26;103448.56;;;26.16;18.33
11395;BME280;5753;54.402;10.220;2023-04-03T14:06:53;103451.81;;;24.31;18.84
11395;BME280;5753;54.402;10.220;2023-04-03T14:09:21;103443.75;;;26.65;17.39
11395;BME280;5753;54.402;10.220;2023-04-03T14:11:50;103447.38;;;26.55;17.67
11395;BME280;5753;54.402;10.220;2023-04-03T14:14:29;103448.28;;;24.41;18.88
11395;BME280;5753;54.402;10.220;2023-04-03T14:17:00;103442.94;;;26.57;17.32
11395;BME280;5753;54.402;10.220;2023-04-03T14:19:30;103443.53;;;27.62;16.58
11395;BME280;5753;54.402;10.220;2023-04-03T14:21:58;103444.28;;;27.02;16.83
11395;BME280;5753;54.402;10.220;2023-04-03T14:24:25;103442.00;;;26.64;16.89
11395;BME280;5753;54.402;10.220;2023-04-03T14:26:53;103430.47;;;27.43;15.86
11395;BME280;5753;54.402;10.220;2023-04-03T14:29:21;103433.09;;;30.25;14.02
11395;BME280;5753;54.402;10.220;2023-04-03T14:31:48;103426.91;;;30.25;13.38
11395;BME280;5753;54.402;10.220;2023-04-03T14:34:15;103425.34;;;32.01;13.16
11395;BME280;5753;54.402;10.220;2023-04-03T14:36:43;103425.91;;;29.93;13.19
11395;BME280;5753;54.402;10.220;2023-04-03T14:39:19;103428.72;;;27.42;14.00
11395;BME280;5753;54.402;10.220;2023-04-03T14:41:45;103422.94;;;29.27;13.77
11395;BME280;5753;54.402;10.220;2023-04-03T14:44:12;103421.03;;;30.12;12.95
11395;BME280;5753;54.402;10.220;2023-04-03T14:46:42;103425.44;;;31.71;13.42
11395;BME280;5753;54.402;10.220;2023-04-03T14:49:17;103421.53;;;28.13;14.11
11395;BME280;5753;54.402;10.220;2023-04-03T14:51:44;103421.53;;;27.53;14.57
11395;BME280;5753;54.402;10.220;2023-04-03T14:54:21;103418.97;;;28.07;14.55
11395;BME280;5753;54.402;10.220;2023-04-03T14:56:51;103416.09;;;30.65;13.89